createdAt,value
2022-09-23T00:01:42.326Z,15.52
2022-09-23T00:04:11.553Z,15.48
2022-09-23T00:06:40.929Z,10.50
2022-09-23T00:09:09.395Z,10.18
2022-09-23T00:11:38.472Z,8.75
2022-09-23T00:14:07.293Z,6.55
2022-09-23T00:16:36.360Z,5.15
2022-09-23T00:19:05.394Z,6.82
2022-09-23T00:21:34.317Z,5.55
2022-09-23T00:24:03.311Z,9.30
2022-09-23T00:26:32.469Z,13.82
2022-09-23T00:29:01.659Z,12.68
2022-09-23T00:31:31.780Z,12.48
2022-09-23T00:34:03.032Z,15.95
2022-09-23T00:36:33.082Z,14.98
2022-09-23T00:39:04.476Z,19.27
2022-09-23T00:41:34.858Z,22.42
2022-09-23T00:44:24.192Z,15.27
2022-09-23T00:46:53.746Z,20.02
2022-09-23T00:49:31.335Z,19.02
2022-09-23T00:52:07.788Z,11.13
2022-09-23T00:54:36.652Z,13.07
2022-09-23T00:57:06.755Z,10.90
2022-09-23T00:59:36.223Z,21.70
2022-09-23T01:02:07.029Z,26.65
2022-09-23T01:04:38.819Z,24.67
2022-09-23T01:07:07.527Z,22.80
2022-09-23T01:09:37.295Z,21.60
2022-09-23T01:12:10.830Z,44.63
2022-09-23T01:14:49.417Z,26.80
2022-09-23T01:17:55.234Z,17.52
2022-09-23T01:20:45.644Z,25.35
2022-09-23T01:23:50.035Z,29.73
2022-09-23T01:27:00.562Z,33.95
2022-09-23T01:29:50.453Z,64.00
2022-09-23T01:32:32.310Z,35.92
2022-09-23T01:35:13.402Z,21.83
2022-09-23T01:38:03.834Z,9.13
2022-09-23T01:41:04.227Z,11.45
2022-09-23T01:44:03.933Z,7.97
2022-09-23T01:47:19.358Z,11.55
2022-09-23T01:50:40.039Z,8.93
2022-09-23T01:53:19.029Z,6.68
2022-09-23T01:55:53.016Z,8.45
2022-09-23T01:58:42.556Z,15.17
2022-09-23T02:01:16.557Z,14.88
2022-09-23T02:04:04.792Z,10.68
2022-09-23T02:06:59.844Z,10.15
2022-09-23T02:09:36.340Z,7.32
2022-09-23T02:12:09.445Z,8.82
2022-09-23T02:14:46.573Z,8.45
2022-09-23T02:17:22.112Z,9.90
2022-09-23T02:19:58.171Z,13.98
2022-09-23T02:23:00.714Z,9.65
2022-09-23T02:25:43.633Z,12.57
2022-09-23T02:28:53.396Z,15.93
2022-09-23T02:31:39.092Z,19.30
2022-09-23T02:34:16.811Z,14.70
2022-09-23T02:37:00.282Z,13.18
2022-09-23T02:39:38.940Z,9.13
2022-09-23T02:42:17.469Z,10.80
2022-09-23T02:44:46.214Z,10.80
2022-09-23T02:47:14.877Z,8.05
2022-09-23T02:49:43.602Z,14.30
2022-09-23T02:52:14.585Z,8.98
2022-09-23T02:54:43.369Z,10.82
2022-09-23T02:57:12.139Z,10.13
2022-09-23T02:59:41.612Z,6.18
2022-09-23T03:02:24.381Z,10.90
2022-09-23T03:05:28.197Z,8.70
2022-09-23T03:07:59.664Z,14.90
2022-09-23T03:10:42.682Z,15.77
2022-09-23T03:13:20.804Z,19.02
2022-09-23T03:16:26.775Z,15.98
2022-09-23T03:21:32.805Z,20.30
2022-09-23T03:24:06.505Z,22.73
2022-09-23T03:26:40.595Z,21.55
2022-09-23T03:29:12.252Z,18.90
2022-09-23T03:31:42.883Z,16.40
2022-09-23T03:34:20.890Z,18.92
2022-09-23T03:37:07.350Z,17.13
2022-09-23T03:39:49.515Z,19.73
2022-09-23T03:42:21.209Z,18.60
2022-09-23T03:44:58.223Z,15.65
2022-09-23T03:47:29.501Z,14.38
2022-09-23T03:49:58.521Z,16.63
2022-09-23T03:52:27.882Z,18.90
2022-09-23T03:54:56.778Z,21.45
2022-09-23T03:57:25.376Z,24.42
2022-09-23T03:59:54.221Z,17.60
2022-09-23T04:02:22.932Z,17.88
2022-09-23T04:04:52.220Z,21.70
2022-09-23T04:07:23.514Z,22.70
2022-09-23T04:09:52.470Z,20.25
2022-09-23T04:12:21.183Z,20.42
2022-09-23T04:14:49.704Z,26.25
2022-09-23T04:17:21.082Z,25.15
2022-09-23T04:19:49.707Z,27.42
2022-09-23T04:22:18.444Z,31.25
2022-09-23T04:24:46.942Z,23.23
2022-09-23T04:27:15.457Z,24.17
2022-09-23T04:29:44.193Z,28.08
2022-09-23T04:32:13.063Z,33.05
2022-09-23T04:34:41.859Z,31.88
2022-09-23T04:37:10.751Z,36.35
2022-09-23T04:39:39.546Z,36.47
2022-09-23T04:42:08.269Z,31.92
2022-09-23T04:44:37.310Z,34.25
2022-09-23T04:47:06.208Z,38.70
2022-09-23T04:49:35.118Z,36.80
2022-09-23T04:52:06.116Z,42.55
2022-09-23T04:54:34.985Z,52.45
2022-09-23T04:57:03.594Z,40.50
2022-09-23T04:59:32.335Z,41.90
2022-09-23T05:02:01.074Z,52.63
2022-09-23T05:04:29.974Z,41.83
2022-09-23T05:07:02.911Z,41.53
2022-09-23T05:09:32.019Z,46.65
2022-09-23T05:12:00.773Z,49.97
2022-09-23T05:14:29.300Z,52.53
2022-09-23T05:16:57.995Z,55.15
2022-09-23T05:19:26.696Z,53.33
2022-09-23T05:21:55.161Z,50.85
2022-09-23T05:24:25.895Z,43.20
2022-09-23T05:26:54.958Z,40.13
2022-09-23T05:29:23.685Z,44.13
2022-09-23T05:31:52.171Z,49.25
2022-09-23T05:34:20.932Z,69.45
2022-09-23T05:36:49.699Z,43.78
2022-09-23T05:39:18.358Z,48.38
2022-09-23T05:41:47.064Z,44.80
2022-09-23T05:44:15.795Z,44.15
2022-09-23T05:46:44.540Z,60.97
2022-09-23T05:49:13.123Z,36.45
2022-09-23T05:51:42.075Z,67.15
2022-09-23T05:54:11.066Z,42.47
2022-09-23T05:56:39.892Z,41.42
2022-09-23T05:59:08.459Z,39.35
2022-09-23T06:01:38.860Z,30.08
2022-09-23T06:04:08.991Z,29.42
2022-09-23T06:06:40.375Z,30.48
2022-09-23T06:09:14.094Z,30.50
2022-09-23T06:11:43.688Z,24.37
2022-09-23T06:14:15.575Z,27.50
2022-09-23T06:16:44.271Z,27.75
2022-09-23T06:19:13.120Z,28.75
2022-09-23T06:21:42.381Z,28.15
2022-09-23T06:24:15.599Z,35.58
2022-09-23T06:26:46.779Z,34.65
2022-09-23T06:29:15.392Z,28.30
2022-09-23T06:31:44.184Z,30.75
2022-09-23T06:34:14.926Z,31.25
2022-09-23T06:36:46.202Z,24.35
2022-09-23T06:39:16.177Z,27.63
2022-09-23T06:41:47.270Z,30.95
2022-09-23T06:44:16.427Z,33.30
2022-09-23T06:46:45.219Z,34.35
2022-09-23T06:49:14.376Z,31.63
2022-09-23T06:51:43.176Z,31.92
2022-09-23T06:54:11.858Z,27.92
2022-09-23T06:56:41.363Z,27.88
2022-09-23T06:59:13.770Z,32.00
2022-09-23T07:01:42.526Z,31.27
2022-09-23T07:04:11.569Z,41.88
2022-09-23T07:06:40.836Z,30.25
2022-09-23T07:09:11.680Z,34.92
2022-09-23T07:11:40.573Z,33.88
2022-09-23T07:14:09.354Z,42.40
2022-09-23T07:16:38.072Z,38.72
2022-09-23T07:19:06.985Z,43.35
2022-09-23T07:21:35.688Z,38.85
2022-09-23T07:24:05.829Z,26.25
2022-09-23T07:26:35.234Z,36.67
2022-09-23T07:29:05.791Z,36.65
2022-09-23T07:31:39.746Z,28.95
2022-09-23T07:34:12.310Z,32.08
2022-09-23T07:36:41.689Z,30.95
2022-09-23T07:39:12.856Z,33.10
2022-09-23T07:41:44.973Z,31.45
2022-09-23T07:44:13.671Z,34.47
2022-09-23T07:46:42.462Z,32.55
2022-09-23T07:49:11.603Z,35.10
2022-09-23T07:51:41.950Z,38.85
2022-09-23T07:54:14.128Z,34.22
2022-09-23T07:56:44.007Z,31.75
2022-09-23T07:59:18.870Z,66.97
2022-09-23T08:01:50.511Z,34.30
2022-09-23T08:04:29.872Z,44.75
2022-09-23T08:07:01.212Z,37.00
2022-09-23T08:09:33.059Z,34.95
2022-09-23T08:12:02.303Z,36.88
2022-09-23T08:14:31.186Z,37.22
2022-09-23T08:17:00.583Z,53.20
2022-09-23T08:19:29.199Z,38.63
2022-09-23T08:21:58.512Z,34.42
2022-09-23T08:24:28.118Z,34.47
2022-09-23T08:26:58.299Z,36.10
2022-09-23T08:29:27.419Z,35.28
2022-09-23T08:31:56.548Z,35.17
2022-09-23T08:34:28.502Z,38.03
2022-09-23T08:36:58.177Z,38.85
2022-09-23T08:39:26.881Z,51.47
2022-09-23T08:41:58.854Z,48.33
2022-09-23T08:44:46.227Z,34.75
2022-09-23T08:47:22.738Z,47.55
2022-09-23T08:50:13.974Z,53.15
2022-09-23T08:52:59.551Z,42.30
2022-09-23T08:55:35.691Z,34.33
2022-09-23T08:58:27.516Z,38.13
2022-09-23T09:01:25.576Z,37.15
2022-09-23T09:04:15.476Z,37.45
2022-09-23T09:07:31.658Z,39.30
2022-09-23T09:10:38.493Z,43.88
2022-09-23T09:13:26.365Z,45.80
2022-09-23T09:16:09.060Z,38.92
2022-09-23T09:18:56.103Z,45.33
2022-09-23T09:21:37.880Z,44.25
2022-09-23T09:24:18.285Z,38.13
2022-09-23T09:26:48.176Z,30.67
2022-09-23T09:29:39.692Z,38.20
2022-09-23T09:32:21.366Z,28.65
2022-09-23T09:34:55.372Z,34.15
2022-09-23T09:37:37.492Z,38.65
2022-09-23T09:40:07.405Z,31.60
2022-09-23T09:42:41.551Z,43.47
2022-09-23T09:45:28.937Z,36.67
2022-09-23T09:48:07.602Z,32.22
2022-09-23T09:50:47.990Z,30.10
2022-09-23T09:53:28.284Z,35.70
2022-09-23T09:56:09.946Z,30.58
2022-09-23T09:58:51.696Z,41.03
2022-09-23T10:01:34.891Z,44.92
2022-09-23T10:04:36.074Z,44.88
2022-09-23T10:07:14.944Z,34.40
2022-09-23T10:09:52.104Z,45.78
2022-09-23T10:12:23.212Z,39.22
2022-09-23T10:14:57.162Z,40.63
2022-09-23T10:17:33.769Z,38.20
2022-09-23T10:20:07.831Z,47.88
2022-09-23T10:22:43.660Z,37.13
2022-09-23T10:25:21.600Z,45.50
2022-09-23T10:27:50.871Z,39.50
2022-09-23T10:30:24.488Z,41.17
2022-09-23T10:32:55.701Z,48.20
2022-09-23T10:35:26.347Z,44.58
2022-09-23T10:38:00.304Z,77.82
2022-09-23T10:40:50.685Z,47.72
2022-09-23T10:43:49.814Z,84.78
2022-09-23T10:46:40.721Z,47.65
2022-09-23T10:49:21.778Z,37.30
2022-09-23T10:52:27.939Z,38.90
2022-09-23T10:55:23.842Z,33.70
2022-09-23T10:58:35.003Z,46.10
2022-09-23T11:01:20.129Z,41.25
2022-09-23T11:03:59.099Z,37.03
2022-09-23T11:06:59.942Z,35.75
2022-09-23T11:09:41.558Z,36.67
2022-09-23T11:12:34.653Z,36.47
2022-09-23T11:15:12.216Z,35.58
2022-09-23T11:17:43.797Z,41.17
2022-09-23T11:20:24.235Z,35.85
2022-09-23T11:23:24.438Z,43.63
2022-09-23T11:26:20.314Z,88.65
2022-09-23T11:28:49.074Z,29.67
2022-09-23T11:31:31.708Z,31.83
2022-09-23T11:34:31.860Z,39.35
2022-09-23T11:37:21.408Z,42.25
2022-09-23T11:40:24.030Z,35.42
2022-09-23T11:42:53.070Z,32.05
2022-09-23T11:45:26.598Z,161.60
2022-09-23T11:48:04.077Z,84.55
2022-09-23T11:50:41.130Z,37.80
2022-09-23T11:53:54.063Z,71.53
2022-09-23T11:56:35.524Z,66.65
2022-09-23T11:59:16.681Z,48.28
2022-09-23T12:01:55.781Z,36.60
2022-09-23T12:04:51.159Z,34.70
2022-09-23T12:07:48.385Z,28.20
2022-09-23T12:10:18.587Z,32.92
2022-09-23T12:13:06.208Z,31.52
2022-09-23T12:16:03.269Z,75.32
2022-09-23T12:18:48.220Z,59.08
2022-09-23T12:24:34.729Z,32.83
2022-09-23T12:27:09.052Z,46.33
2022-09-23T12:29:40.710Z,39.25
2022-09-23T12:32:19.138Z,40.72
2022-09-23T12:34:50.700Z,34.75
2022-09-23T12:37:38.823Z,42.28
2022-09-23T12:40:23.348Z,40.10
2022-09-23T12:42:52.632Z,42.40
2022-09-23T12:45:34.459Z,41.72
2022-09-23T12:48:06.043Z,37.88
2022-09-23T12:51:17.476Z,54.35
2022-09-23T12:53:51.183Z,41.63
2022-09-23T12:56:27.197Z,48.33
2022-09-23T12:59:21.074Z,58.22
2022-09-23T13:01:50.037Z,31.70
2022-09-23T13:05:11.774Z,30.90
2022-09-23T13:07:47.018Z,39.50
2022-09-23T13:10:20.535Z,46.65
2022-09-23T13:12:50.243Z,55.83
2022-09-23T13:15:32.277Z,43.40
2022-09-23T13:18:22.295Z,42.17
2022-09-23T13:20:55.691Z,40.10
2022-09-23T13:23:28.053Z,51.85
2022-09-23T13:26:10.958Z,68.32
2022-09-23T13:29:00.049Z,46.22
2022-09-23T13:31:28.909Z,35.30
2022-09-23T13:34:08.778Z,46.15
2022-09-23T13:36:49.301Z,46.53
2022-09-23T13:39:25.387Z,44.70
2022-09-23T13:41:57.194Z,45.72
2022-09-23T13:44:25.978Z,38.35
2022-09-23T13:47:03.921Z,49.08
2022-09-23T13:49:37.634Z,39.70
2022-09-23T13:52:06.211Z,64.47
2022-09-23T13:54:47.467Z,75.45
2022-09-23T13:57:45.661Z,72.47
2022-09-23T14:00:22.283Z,72.38
2022-09-23T14:02:50.840Z,121.40
2022-09-23T14:05:25.347Z,118.22
2022-09-23T14:07:55.943Z,223.25
2022-09-23T14:10:28.383Z,260.60
2022-09-23T14:12:57.831Z,164.55
2022-09-23T14:15:26.569Z,168.90
2022-09-23T14:18:02.842Z,123.15
2022-09-23T14:20:31.385Z,124.10
2022-09-23T14:23:12.807Z,145.85
2022-09-23T14:25:43.643Z,300.02
2022-09-23T14:28:24.963Z,173.80
2022-09-23T14:30:58.177Z,110.07
2022-09-23T14:33:34.434Z,99.13
2022-09-23T14:36:30.866Z,83.22
2022-09-23T14:39:08.137Z,98.53
2022-09-23T14:41:43.307Z,129.95
2022-09-23T14:44:26.273Z,151.95
2022-09-23T14:46:59.695Z,157.32
2022-09-23T14:49:28.823Z,164.02
2022-09-23T14:52:03.755Z,226.55
2022-09-23T14:54:42.916Z,128.15
2022-09-23T14:57:23.462Z,115.10
2022-09-23T15:00:08.829Z,149.90
2022-09-23T15:02:43.192Z,192.48
2022-09-23T15:05:22.587Z,268.70
2022-09-23T15:07:53.531Z,245.55
2022-09-23T15:10:38.250Z,241.55
2022-09-23T15:13:10.730Z,300.90
2022-09-23T15:15:39.474Z,277.95
2022-09-23T15:18:16.359Z,272.50
2022-09-23T15:21:13.121Z,307.27
2022-09-23T15:23:53.091Z,294.95
2022-09-23T15:26:49.651Z,296.48
2022-09-23T15:29:19.720Z,363.85
2022-09-23T15:31:48.402Z,326.90
2022-09-23T15:34:17.718Z,337.42
2022-09-23T15:36:46.538Z,326.05
2022-09-23T15:39:15.778Z,298.00
2022-09-23T15:41:44.739Z,291.35
2022-09-23T15:44:14.580Z,276.73
2022-09-23T15:46:48.467Z,241.32
2022-09-23T15:49:35.062Z,293.15
2022-09-23T15:52:05.654Z,291.52
2022-09-23T15:54:34.844Z,300.20
2022-09-23T15:57:03.482Z,330.38
2022-09-23T15:59:32.502Z,274.77
2022-09-23T16:02:06.296Z,290.40
2022-09-23T16:04:36.808Z,241.98
2022-09-23T16:07:06.242Z,238.77
2022-09-23T16:09:34.943Z,210.95
2022-09-23T16:12:04.241Z,185.60
2022-09-23T16:14:33.222Z,177.10
2022-09-23T16:17:04.245Z,196.88
2022-09-23T16:19:35.022Z,185.02
2022-09-23T16:22:05.252Z,137.45
2022-09-23T16:24:33.981Z,161.48
2022-09-23T16:27:08.305Z,161.57
2022-09-23T16:29:36.862Z,148.52
2022-09-23T16:32:05.654Z,125.78
2022-09-23T16:34:35.624Z,110.30
2022-09-23T16:37:05.535Z,94.72
2022-09-23T16:39:34.111Z,86.60
2022-09-23T16:42:03.052Z,111.90
2022-09-23T16:44:33.582Z,119.05
2022-09-23T16:47:02.309Z,113.30
2022-09-23T16:49:30.801Z,102.72
2022-09-23T16:52:01.924Z,109.38
2022-09-23T16:54:30.642Z,117.80
2022-09-23T16:57:00.002Z,106.10
2022-09-23T16:59:48.491Z,110.43
2022-09-23T17:02:35.540Z,100.03
2022-09-23T17:05:04.905Z,97.38
2022-09-23T17:07:33.684Z,89.07
2022-09-23T17:10:02.267Z,123.47
2022-09-23T17:12:35.985Z,100.45
2022-09-23T17:15:08.083Z,79.43
2022-09-23T17:17:40.460Z,88.43
2022-09-23T17:20:09.125Z,98.47
2022-09-23T17:22:37.816Z,96.72
2022-09-23T17:25:06.752Z,102.15
2022-09-23T17:27:36.003Z,100.07
2022-09-23T17:30:06.067Z,107.78
2022-09-23T17:32:34.630Z,102.53
2022-09-23T17:35:05.442Z,87.57
2022-09-23T17:37:34.085Z,88.25
2022-09-23T17:40:03.337Z,74.85
2022-09-23T17:42:32.096Z,86.78
2022-09-23T17:45:00.664Z,85.18
2022-09-23T17:47:33.383Z,78.55
2022-09-23T17:50:03.835Z,87.03
2022-09-23T17:52:34.200Z,94.20
2022-09-23T17:55:02.900Z,134.70
2022-09-23T17:57:34.878Z,109.03
2022-09-23T18:00:03.805Z,110.72
2022-09-23T18:02:39.972Z,106.78
2022-09-23T18:05:09.123Z,98.03
2022-09-23T18:07:37.626Z,72.32
2022-09-23T18:10:06.919Z,86.63
2022-09-23T18:12:35.725Z,69.22
2022-09-23T18:15:04.528Z,97.80
2022-09-23T18:17:33.125Z,91.25
2022-09-23T18:20:02.285Z,99.35
2022-09-23T18:22:30.796Z,68.85
2022-09-23T18:24:59.688Z,58.92
2022-09-23T19:28:27.228Z,48.00
2022-09-23T19:30:56.033Z,41.88
2022-09-23T19:33:25.193Z,36.75
2022-09-23T19:35:54.305Z,40.30
2022-09-23T19:38:23.044Z,32.60
2022-09-23T19:40:53.049Z,29.48
2022-09-23T19:43:21.832Z,27.50
2022-09-23T19:45:56.989Z,36.97
2022-09-23T19:48:27.884Z,87.18
2022-09-23T19:50:56.661Z,39.35
2022-09-23T19:53:28.170Z,45.63
2022-09-23T19:55:57.933Z,41.92
2022-09-23T19:58:27.100Z,50.53
2022-09-23T20:00:55.786Z,49.88
2022-09-23T20:03:25.336Z,64.82
2022-09-23T20:05:58.158Z,58.38
2022-09-23T20:08:27.941Z,66.95
2022-09-23T20:10:56.480Z,52.90
2022-09-23T20:13:25.419Z,51.85
2022-09-23T20:15:54.281Z,89.63
2022-09-23T20:18:23.185Z,33.42
2022-09-23T20:20:55.961Z,35.83
2022-09-23T20:23:24.591Z,67.50
2022-09-23T20:26:19.329Z,35.60
2022-09-23T20:28:49.374Z,60.17
2022-09-23T20:31:21.654Z,48.35
2022-09-23T20:33:59.010Z,58.40
2022-09-23T20:36:29.377Z,38.42
2022-09-23T20:39:03.164Z,53.08
2022-09-23T20:41:35.425Z,40.80
2022-09-23T20:44:06.896Z,41.45
2022-09-23T20:46:36.800Z,49.72
2022-09-23T20:49:08.538Z,35.28
2022-09-23T20:51:38.318Z,33.17
2022-09-23T20:54:11.358Z,36.17
2022-09-23T20:56:40.452Z,46.70
2022-09-23T20:59:11.457Z,31.90
2022-09-23T21:01:40.349Z,34.78
2022-09-23T21:04:10.249Z,30.77
2022-09-23T21:06:40.629Z,33.63
2022-09-23T21:09:09.370Z,37.25
2022-09-23T21:11:39.008Z,61.92
2022-09-23T21:14:07.916Z,53.13
2022-09-23T21:16:36.856Z,60.88
2022-09-23T21:19:08.718Z,32.17
2022-09-23T21:21:37.436Z,32.15
2022-09-23T21:26:55.078Z,29.65
2022-09-23T21:29:23.519Z,36.42
2022-09-23T21:31:52.128Z,36.92
2022-09-23T21:34:20.767Z,42.78
2022-09-23T21:36:49.719Z,39.47
2022-09-23T21:39:18.403Z,34.40
2022-09-23T21:41:46.958Z,48.20
2022-09-23T21:44:15.668Z,44.28
2022-09-23T21:46:44.638Z,39.63
2022-09-23T21:49:13.728Z,38.33
2022-09-23T21:51:42.408Z,38.72
2022-09-23T21:54:16.363Z,35.95
2022-09-23T21:56:45.709Z,38.47
2022-09-23T21:59:14.326Z,42.45
2022-09-23T22:01:45.848Z,37.33
2022-09-23T22:04:18.484Z,43.90
2022-09-23T22:06:49.705Z,38.58
2022-09-23T22:09:20.295Z,38.55
2022-09-23T22:12:12.417Z,39.88
2022-09-23T22:14:41.678Z,42.75
2022-09-23T22:17:12.184Z,46.30
2022-09-23T22:19:46.738Z,44.60
2022-09-23T22:22:18.198Z,50.90
2022-09-23T22:24:48.173Z,41.70
2022-09-23T22:27:19.265Z,163.77
2022-09-23T22:30:07.013Z,52.42
2022-09-23T22:32:41.858Z,153.88
2022-09-23T22:35:14.212Z,47.47
2022-09-23T22:37:43.010Z,46.97
2022-09-23T22:40:15.159Z,52.00
2022-09-23T22:42:44.805Z,74.07
2022-09-23T22:45:14.152Z,51.67
2022-09-23T22:47:45.994Z,165.90
2022-09-23T22:50:15.568Z,133.57
2022-09-23T22:52:44.582Z,62.03
2022-09-23T22:55:13.580Z,67.70
2022-09-23T22:57:45.271Z,55.83
2022-09-23T23:00:14.761Z,61.05
2022-09-23T23:02:43.364Z,59.90
2022-09-23T23:05:12.358Z,61.85
2022-09-23T23:07:41.822Z,68.57
2022-09-23T23:10:10.953Z,65.60
2022-09-23T23:12:40.179Z,66.97
2022-09-23T23:15:13.610Z,64.97
2022-09-23T23:17:43.864Z,81.03
2022-09-23T23:20:12.691Z,72.88
2022-09-23T23:22:41.303Z,77.90
2022-09-23T23:25:10.459Z,84.22
2022-09-23T23:27:39.140Z,84.35
2022-09-23T23:30:08.921Z,87.93
2022-09-23T23:32:37.843Z,85.45
2022-09-23T23:35:07.063Z,85.53
2022-09-23T23:37:35.825Z,98.38
2022-09-23T23:40:05.831Z,90.38
2022-09-23T23:42:35.311Z,97.03
2022-09-23T23:45:03.961Z,99.30
2022-09-23T23:47:32.848Z,97.00
2022-09-23T23:50:04.597Z,93.80
2022-09-23T23:52:33.297Z,107.70
2022-09-23T23:55:01.805Z,98.97
2022-09-23T23:57:30.418Z,101.85
2022-09-23T23:59:59.478Z,100.97
